Time;durP1;ratioP1;P1;durP2;ratioP2;P2;SDS_P1;SDS_P2;PMS_P1;PMS_P2;Temp;Humidity;BMP_temperature;BMP_pressure;BME280_temperature;BME280_humidity;BME280_pressure;Samples;Min_cycle;Max_cycle;Signal;HPM_P1;HPM_P2
2022/04/03 09:13:23;;;;;;;2.83;2.72;;;2.90;99.90;;;;;;5070794;28;20537;-68
2022/04/03 09:15:49;;;;;;;2.88;2.70;;;3.00;99.90;;;;;;5070727;28;20251;-68
2022/04/03 09:18:15;;;;;;;2.75;2.58;;;2.90;99.90;;;;;;5070666;28;20656;-68
2022/04/03 09:20:40;;;;;;;3.05;2.95;;;2.90;99.90;;;;;;5070630;28;20173;-68
2022/04/03 09:23:07;;;;;;;3.20;2.97;;;2.90;99.90;;;;;;5070509;28;20172;-68
2022/04/03 09:25:41;;;;;;;3.50;3.30;;;2.90;99.90;;;;;;5070436;28;20181;-68
2022/04/03 09:28:14;;;;;;;3.38;3.17;;;3.00;99.90;;;;;;5070436;28;20176;-68
2022/04/03 09:30:40;;;;;;;3.22;2.92;;;3.10;99.90;;;;;;5070440;28;20278;-68
2022/04/03 09:33:07;;;;;;;2.60;2.50;;;3.30;99.90;;;;;;5070262;28;20697;-68
2022/04/03 09:35:52;;;;;;;2.60;2.50;;;3.50;99.90;;;;;;5070223;28;20183;-68
2022/04/03 09:38:17;;;;;;;4.13;2.50;;;3.70;99.90;;;;;;5070240;28;20169;-68
2022/04/03 09:40:46;;;;;;;2.67;2.50;;;4.00;99.90;;;;;;5070122;28;20510;-68
2022/04/03 09:43:25;;;;;;;2.60;2.38;;;4.10;99.90;;;;;;5070121;28;20164;-68
2022/04/03 09:45:51;;;;;;;2.55;2.45;;;4.30;99.90;;;;;;5069942;28;20626;-68
2022/04/03 09:48:20;;;;;;;2.85;2.65;;;4.30;99.90;;;;;;5068577;28;20242;-68
2022/04/03 09:51:06;;;;;;;2.67;2.55;;;4.30;99.90;;;;;;5069966;28;20172;-68
2022/04/03 09:53:51;;;;;;;2.67;2.58;;;4.40;99.90;;;;;;5069821;28;20200;-68
2022/04/03 09:56:25;;;;;;;3.22;2.90;;;4.50;99.90;;;;;;5069849;28;20287;-68
2022/04/03 09:58:51;;;;;;;3.00;2.83;;;4.50;99.90;;;;;;5069675;28;20165;-68
2022/04/03 10:01:35;;;;;;;3.28;3.00;;;4.50;99.90;;;;;;5069740;28;20164;-68
2022/04/03 10:04:03;;;;;;;2.97;2.78;;;4.60;99.90;;;;;;5069731;28;20252;-68
2022/04/03 10:06:30;;;;;;;7.40;3.05;;;4.80;99.90;;;;;;5069655;28;20165;-68
2022/04/03 10:08:57;;;;;;;3.42;2.53;;;4.70;99.90;;;;;;5069584;28;20235;-68
2022/04/03 10:11:23;;;;;;;3.28;3.08;;;4.60;99.90;;;;;;5069310;28;20826;-68
2022/04/03 10:13:50;;;;;;;3.05;2.95;;;4.50;99.90;;;;;;5069470;28;20218;-68
2022/04/03 10:16:18;;;;;;;2.63;2.42;;;4.40;99.90;;;;;;5069397;28;20561;-68
2022/04/03 10:18:44;;;;;;;2.80;2.70;;;4.20;99.90;;;;;;5068101;28;20644;-68
2022/04/03 10:21:37;;;;;;;3.10;2.63;;;4.20;99.90;;;;;;5069280;28;20562;-68
2022/04/03 10:24:12;;;;;;;2.45;2.33;;;4.30;99.90;;;;;;5059295;28;20173;-68
2022/04/03 10:26:40;;;;;;;2.92;2.83;;;4.30;99.90;;;;;;5056074;28;20568;-68
2022/04/03 10:29:11;;;;;;;2.72;2.60;;;4.50;99.90;;;;;;5055949;28;20259;-68
2022/04/03 10:31:38;;;;;;;3.03;2.63;;;4.70;99.90;;;;;;5055766;28;20197;-68
2022/04/03 10:34:04;;;;;;;6.82;2.60;;;4.80;99.90;;;;;;5055884;28;20169;-68
2022/04/03 10:36:34;;;;;;;2.75;2.65;;;5.00;99.90;;;;;;5055837;28;20165;-68
2022/04/03 10:39:04;;;;;;;2.70;2.60;;;5.20;99.90;;;;;;5055820;28;20534;-68
2022/04/03 10:41:36;;;;;;;3.30;3.00;;;5.20;99.90;;;;;;5055797;28;20260;-68
2022/04/03 10:44:15;;;;;;;2.60;2.40;;;5.40;99.90;;;;;;5055759;28;20169;-68
2022/04/03 10:47:19;;;;;;;2.45;2.35;;;5.30;99.90;;;;;;5055634;28;20169;-68
2022/04/03 10:50:02;;;;;;;3.00;2.80;;;5.30;99.90;;;;;;5055283;28;20203;-68
2022/04/03 10:52:36;;;;;;;3.72;3.45;;;5.20;99.90;;;;;;5055407;28;20200;-68
2022/04/03 10:55:11;;;;;;;2.75;2.65;;;5.00;99.90;;;;;;5055528;28;20168;-68
2022/04/03 10:57:44;;;;;;;2.70;2.42;;;4.90;99.90;;;;;;5055484;28;20208;-68
2022/04/03 11:00:11;;;;;;;2.88;2.67;;;4.90;99.90;;;;;;5055419;28;20175;-68
2022/04/03 11:02:36;;;;;;;5.03;2.38;;;4.80;99.90;;;;;;5055419;28;20165;-68
2022/04/03 11:05:26;;;;;;;2.50;2.40;;;4.70;99.90;;;;;;5055276;28;20199;-68
2022/04/03 11:08:02;;;;;;;2.15;2.00;;;4.70;99.90;;;;;;5055300;28;20188;-68
2022/04/03 11:10:52;;;;;;;3.45;2.45;;;4.60;99.90;;;;;;5055293;28;20183;-68
2022/04/03 11:13:21;;;;;;;3.38;2.22;;;4.50;99.90;;;;;;5055193;28;20188;-68
2022/04/03 11:15:56;;;;;;;2.47;2.30;;;4.30;99.90;;;;;;5055036;28;20260;-68
2022/04/03 11:18:37;;;;;;;4.30;2.58;;;4.30;99.90;;;;;;5055096;28;20164;-68
2022/04/03 11:21:12;;;;;;;2.55;2.45;;;4.50;99.90;;;;;;5055194;28;20219;-68
2022/04/03 11:23:46;;;;;;;3.70;2.55;;;4.50;99.90;;;;;;5055064;28;20230;-68
2022/04/03 11:26:12;;;;;;;3.10;2.90;;;4.30;99.90;;;;;;5054872;28;20243;-68
2022/04/03 11:28:39;;;;;;;6.10;3.17;;;4.30;99.90;;;;;;5054962;28;20161;-68
2022/04/03 11:31:05;;;;;;;5.93;3.70;;;4.40;99.90;;;;;;5054771;28;20165;-68
2022/04/03 11:33:32;;;;;;;8.15;4.13;;;4.50;99.90;;;;;;5054727;28;20208;-68
2022/04/03 11:36:18;;;;;;;3.67;3.38;;;4.50;99.90;;;;;;5053778;28;20197;-68
2022/04/03 11:38:49;;;;;;;4.32;3.33;;;4.70;99.90;;;;;;5054939;28;20167;-68
2022/04/03 11:41:17;;;;;;;4.20;3.90;;;4.60;99.90;;;;;;5054718;28;20259;-68
2022/04/03 11:43:54;;;;;;;6.28;3.53;;;4.40;99.90;;;;;;5054568;28;20180;-68
2022/04/03 11:46:20;;;;;;;7.90;4.10;;;4.40;99.90;;;;;;5054577;28;20196;-68
2022/04/03 11:48:46;;;;;;;6.20;4.75;;;4.40;99.90;;;;;;5054385;28;20177;-68
2022/04/03 11:51:14;;;;;;;5.03;4.18;;;4.60;99.90;;;;;;5054368;28;20168;-68
2022/04/03 11:53:44;;;;;;;9.88;5.78;;;4.70;99.90;;;;;;5054331;28;20165;-68
2022/04/03 11:56:19;;;;;;;5.28;4.80;;;4.80;99.90;;;;;;5054325;28;20251;-68
2022/04/03 11:58:58;;;;;;;10.77;4.80;;;5.00;99.90;;;;;;5054345;28;20166;-68
2022/04/03 12:01:28;;;;;;;4.30;3.90;;;5.20;99.90;;;;;;5054307;28;20169;-68
2022/04/03 12:04:01;;;;;;;4.47;3.95;;;5.40;99.90;;;;;;5054268;28;20176;-68
2022/04/03 12:06:30;;;;;;;3.88;3.50;;;5.40;99.90;;;;;;5054238;28;20260;-68
2022/04/03 12:08:55;;;;;;;5.00;3.72;;;5.40;99.90;;;;;;5054131;28;20173;-68
2022/04/03 12:11:25;;;;;;;11.68;5.72;;;5.60;99.90;;;;;;5054021;28;20247;-68
2022/04/03 12:13:58;;;;;;;6.60;4.65;;;5.50;99.90;;;;;;5053988;28;20169;-68
2022/04/03 12:16:32;;;;;;;3.10;2.90;;;5.60;99.90;;;;;;5054018;28;20172;-68
2022/04/03 12:18:58;;;;;;;2.47;2.28;;;5.70;99.90;;;;;;5054010;28;20248;-68
2022/04/03 12:21:40;;;;;;;3.03;2.80;;;5.80;99.90;;;;;;5053873;28;20234;-68
2022/04/03 12:24:09;;;;;;;2.95;2.63;;;5.80;99.90;;;;;;5053718;28;20165;-68
2022/04/03 12:26:35;;;;;;;2.78;2.58;;;5.80;99.90;;;;;;5053804;28;20230;-68
2022/04/03 12:29:03;;;;;;;3.88;2.55;;;5.80;99.90;;;;;;5053775;28;20559;-68
2022/04/03 12:31:30;;;;;;;2.40;2.20;;;5.60;99.90;;;;;;5053650;28;20189;-68
2022/04/03 12:34:11;;;;;;;5.90;2.40;;;5.60;99.90;;;;;;5053712;28;20173;-68
2022/04/03 12:36:48;;;;;;;2.22;2.13;;;5.90;99.90;;;;;;5053620;28;20168;-68
2022/04/03 12:39:34;;;;;;;2.70;2.15;;;6.00;99.90;;;;;;5053645;28;20216;-68
2022/04/03 12:42:16;;;;;;;2.22;2.03;;;6.20;99.90;;;;;;5053539;28;20523;-69
2022/04/03 12:44:47;;;;;;;2.50;2.20;;;6.20;99.90;;;;;;5053464;28;20176;-68
2022/04/03 12:47:14;;;;;;;4.28;2.30;;;6.30;99.90;;;;;;5053245;28;20532;-68
2022/04/03 12:49:40;;;;;;;2.30;2.20;;;6.20;99.90;;;;;;5053485;28;20172;-68
2022/04/03 12:52:06;;;;;;;5.13;3.80;;;6.20;99.90;;;;;;5053333;28;20197;-68
2022/04/03 12:54:44;;;;;;;3.33;2.50;;;6.30;99.90;;;;;;5053410;28;20260;-68
2022/04/03 13:00:19;;;;;;;2.90;2.30;;;6.50;99.90;;;;;;5053669;28;20172;-68
2022/04/03 13:02:46;;;;;;;4.30;2.30;;;6.50;99.90;;;;;;5053327;28;20267;-68
2022/04/03 13:05:18;;;;;;;2.67;2.47;;;6.60;99.90;;;;;;5053260;28;20169;-69
2022/04/03 13:07:44;;;;;;;2.47;2.30;;;6.60;99.90;;;;;;5053261;28;20166;-69
2022/04/03 13:10:20;;;;;;;2.53;2.33;;;6.50;99.90;;;;;;5053022;28;20201;-68
2022/04/03 13:12:47;;;;;;;2.80;1.92;;;6.50;99.90;;;;;;5052688;28;20228;-69
2022/04/03 13:15:13;;;;;;;8.60;3.80;;;6.40;99.90;;;;;;5052960;28;20165;-69
2022/04/03 13:17:39;;;;;;;2.20;2.10;;;6.30;99.90;;;;;;5053002;28;20172;-68
2022/04/03 13:20:05;;;;;;;3.00;2.80;;;6.10;99.90;;;;;;5052904;28;20526;-68
2022/04/03 13:22:30;;;;;;;2.53;2.42;;;6.00;99.90;;;;;;5052801;28;20226;-69
2022/04/03 13:24:56;;;;;;;2.80;2.30;;;6.10;99.90;;;;;;5052841;28;20719;-69
2022/04/03 13:27:21;;;;;;;4.50;2.47;;;6.20;99.90;;;;;;5052829;28;20184;-69
2022/04/03 13:29:47;;;;;;;3.03;2.47;;;6.10;99.90;;;;;;5052935;28;20165;-69
2022/04/03 13:32:13;;;;;;;2.40;2.30;;;6.10;99.90;;;;;;5052943;28;20241;-68
2022/04/03 13:34:38;;;;;;;2.97;2.60;;;6.20;99.90;;;;;;5052960;28;20244;-68
2022/04/03 13:37:04;;;;;;;3.05;2.78;;;6.30;99.90;;;;;;5052793;28;20521;-69
2022/04/03 13:39:29;;;;;;;3.13;2.55;;;6.40;99.90;;;;;;5052825;28;20244;-66
2022/04/03 13:41:56;;;;;;;2.40;2.30;;;6.50;99.90;;;;;;5052758;28;20179;-67
2022/04/03 13:44:22;;;;;;;2.47;2.38;;;6.50;99.90;;;;;;5052654;28;20283;-66
2022/04/03 13:46:48;;;;;;;2.75;2.53;;;6.40;99.90;;;;;;5052520;28;20165;-66
2022/04/03 13:49:14;;;;;;;3.10;2.90;;;6.20;99.90;;;;;;5052709;28;20182;-66
2022/04/03 13:51:40;;;;;;;2.90;2.80;;;5.90;99.90;;;;;;5052524;28;20193;-66
2022/04/03 13:54:09;;;;;;;3.03;2.92;;;5.60;99.90;;;;;;5052626;28;20188;-68
2022/04/03 13:56:36;;;;;;;4.72;3.45;;;5.30;99.90;;;;;;5052658;28;20248;-68
2022/04/03 13:59:02;;;;;;;3.72;3.03;;;5.10;99.90;;;;;;5054745;28;20223;-68
2022/04/03 14:01:29;;;;;;;3.63;3.40;;;5.00;99.90;;;;;;5056356;28;20173;-68
2022/04/03 14:03:55;;;;;;;4.75;4.35;;;5.00;99.90;;;;;;5056402;28;20523;-68
2022/04/03 14:06:21;;;;;;;4.00;3.47;;;5.00;99.90;;;;;;5056304;28;20184;-68
2022/04/03 14:08:47;;;;;;;4.30;3.95;;;4.90;99.90;;;;;;5056401;28;20176;-68
2022/04/03 14:11:13;;;;;;;3.92;3.40;;;4.80;99.90;;;;;;5056057;28;20217;-68
2022/04/03 14:13:39;;;;;;;3.80;3.50;;;4.80;99.90;;;;;;5056311;28;20501;-68
2022/04/03 14:16:05;;;;;;;3.80;3.40;;;4.80;99.90;;;;;;5056176;28;20196;-68
2022/04/03 14:18:31;;;;;;;5.22;3.97;;;4.80;99.90;;;;;;5056168;28;20161;-68
2022/04/03 14:20:58;;;;;;;6.68;3.85;;;4.80;99.90;;;;;;5056114;28;20161;-68
2022/04/03 14:23:36;;;;;;;3.70;3.50;;;4.80;99.90;;;;;;5056111;28;20173;-68
2022/04/03 14:26:06;;;;;;;3.58;3.38;;;4.70;99.90;;;;;;5055975;28;20184;-68
2022/04/03 14:28:34;;;;;;;3.00;2.90;;;4.70;99.90;;;;;;5055964;28;20173;-68
2022/04/03 14:31:00;;;;;;;3.85;3.65;;;4.80;99.90;;;;;;5055892;28;20227;-68
2022/04/03 14:33:26;;;;;;;3.50;3.30;;;4.80;99.90;;;;;;5054542;28;20526;-68
2022/04/03 14:35:52;;;;;;;4.55;3.55;;;4.90;99.90;;;;;;5055850;28;20231;-68
2022/04/03 14:38:17;;;;;;;3.80;3.42;;;5.00;99.90;;;;;;5055726;28;20616;-68
2022/04/03 14:40:43;;;;;;;4.15;3.33;;;5.10;99.90;;;;;;5055765;28;20173;-68
2022/04/03 14:43:09;;;;;;;3.50;3.30;;;5.30;99.90;;;;;;5055662;28;20176;-66
2022/04/03 14:45:37;;;;;;;3.88;3.58;;;5.60;99.90;;;;;;5055623;28;20173;-66
2022/04/03 14:48:06;;;;;;;3.70;3.40;;;5.70;99.90;;;;;;5055523;28;20166;-66
2022/04/03 14:50:31;;;;;;;3.42;3.13;;;5.90;99.90;;;;;;5055531;28;20634;-66
2022/04/03 14:52:58;;;;;;;4.50;2.65;;;6.10;99.90;;;;;;5055478;28;20239;-66
2022/04/03 14:55:24;;;;;;;3.55;3.35;;;6.20;99.90;;;;;;5055507;28;20450;-66
2022/04/03 14:57:52;;;;;;;3.55;3.25;;;6.10;99.90;;;;;;5055390;28;20618;-66
2022/04/03 15:00:18;;;;;;;4.15;3.78;;;6.10;99.90;;;;;;5055348;28;20177;-66
2022/04/03 15:02:44;;;;;;;3.33;3.13;;;5.90;99.90;;;;;;5055756;28;20173;-66
2022/04/03 15:05:10;;;;;;;4.97;3.60;;;5.90;99.90;;;;;;5055283;28;20211;-66
2022/04/03 15:07:36;;;;;;;3.45;3.17;;;5.90;99.90;;;;;;5055182;28;20174;-66
2022/04/03 15:10:07;;;;;;;4.45;3.20;;;5.80;99.90;;;;;;5055085;28;20177;-66
2022/04/03 15:12:33;;;;;;;3.50;3.25;;;5.70;99.90;;;;;;5053631;28;20228;-66
2022/04/03 15:14:59;;;;;;;3.60;3.30;;;5.50;99.90;;;;;;5055060;28;20180;-66
2022/04/03 15:17:25;;;;;;;4.60;3.40;;;5.40;99.90;;;;;;5055043;28;20644;-66
2022/04/03 15:19:51;;;;;;;3.08;2.88;;;5.30;99.90;;;;;;5055025;28;20631;-66
2022/04/03 15:22:16;;;;;;;2.50;2.40;;;5.20;99.90;;;;;;5055012;28;20200;-66
2022/04/03 15:24:42;;;;;;;3.13;2.83;;;5.20;99.90;;;;;;5054994;28;20216;-66
2022/04/03 15:27:08;;;;;;;2.70;2.50;;;5.10;99.90;;;;;;5053546;28;20185;-66
2022/04/03 15:29:54;;;;;;;3.28;2.40;;;5.10;99.90;;;;;;5053458;28;20173;-66
2022/04/03 15:32:20;;;;;;;4.32;3.10;;;5.10;99.90;;;;;;5054753;28;20254;-68
2022/04/03 15:34:47;;;;;;;6.57;3.47;;;5.10;99.90;;;;;;5054733;28;20191;-68
2022/04/03 15:37:13;;;;;;;3.95;3.65;;;5.10;99.90;;;;;;5054782;28;20256;-68
2022/04/03 15:39:41;;;;;;;3.47;3.25;;;5.20;99.90;;;;;;5054852;28;20215;-68
2022/04/03 15:42:07;;;;;;;3.50;3.30;;;5.10;99.90;;;;;;5054473;28;20615;-68
2022/04/03 15:44:33;;;;;;;3.42;3.25;;;5.10;99.90;;;;;;5054539;28;20169;-68
2022/04/03 15:46:58;;;;;;;3.38;3.28;;;5.10;99.90;;;;;;5054489;28;20181;-68
2022/04/03 15:49:24;;;;;;;4.10;3.90;;;5.20;99.90;;;;;;5053117;28;20180;-68
2022/04/03 15:51:49;;;;;;;2.97;2.78;;;5.20;99.90;;;;;;5054311;28;20193;-68
2022/04/03 15:54:16;;;;;;;3.35;3.03;;;5.30;99.90;;;;;;5054355;28;20543;-68
2022/04/03 15:56:42;;;;;;;3.30;3.08;;;5.50;99.90;;;;;;5054254;28;20519;-68
2022/04/03 15:59:07;;;;;;;9.57;2.40;;;6.00;99.90;;;;;;5054244;28;20165;-68
2022/04/03 16:01:33;;;;;;;2.67;2.58;;;6.60;99.90;;;;;;5054204;28;20169;-68
2022/04/03 16:04:02;;;;;;;2.38;2.28;;;6.90;99.90;;;;;;5054198;28;20184;-68
2022/04/03 16:06:27;;;;;;;2.92;2.72;;;7.20;99.90;;;;;;5054203;28;20176;-68
2022/04/03 16:08:53;;;;;;;5.60;2.45;;;7.30;99.90;;;;;;5054186;28;20571;-68
2022/04/03 16:11:18;;;;;;;2.70;2.60;;;7.20;99.90;;;;;;5053806;28;20236;-68
2022/04/03 16:13:44;;;;;;;2.97;2.78;;;6.90;99.90;;;;;;5054106;28;20169;-68
2022/04/03 16:16:10;;;;;;;3.47;3.03;;;6.50;99.90;;;;;;5054033;28;20176;-68
2022/04/03 16:18:36;;;;;;;2.38;2.20;;;6.20;99.90;;;;;;5053997;28;20200;-68
2022/04/03 16:21:02;;;;;;;7.80;2.50;;;6.00;99.90;;;;;;5053486;28;20185;-68
2022/04/03 16:23:28;;;;;;;2.67;2.58;;;5.80;99.90;;;;;;5053970;28;20169;-68
2022/04/03 16:25:54;;;;;;;2.60;2.40;;;5.70;99.90;;;;;;5052543;28;20242;-68
2022/04/03 16:28:22;;;;;;;4.40;2.60;;;5.60;99.90;;;;;;5053832;28;20308;-68
2022/04/03 16:30:49;;;;;;;2.35;2.20;;;5.60;99.90;;;;;;5053773;28;20172;-68
2022/04/03 16:33:15;;;;;;;2.75;2.47;;;5.60;99.90;;;;;;5053677;28;20208;-68
2022/04/03 16:35:41;;;;;;;2.42;2.33;;;5.60;99.90;;;;;;5053732;28;20248;-68
2022/04/03 16:38:09;;;;;;;2.50;2.40;;;5.70;99.90;;;;;;5053596;28;20162;-68
2022/04/03 16:40:38;;;;;;;3.80;3.55;;;5.60;99.90;;;;;;5053638;28;20248;-68
2022/04/03 16:43:06;;;;;;;3.95;3.70;;;5.50;99.90;;;;;;5053563;28;20173;-68
2022/04/03 16:45:33;;;;;;;5.05;2.88;;;5.40;99.90;;;;;;5053566;28;20634;-68
2022/04/03 16:48:00;;;;;;;3.28;3.05;;;5.30;99.90;;;;;;5053428;28;20201;-68
2022/04/03 16:50:26;;;;;;;2.88;2.78;;;5.40;99.90;;;;;;5053517;28;20530;-68
2022/04/03 16:52:51;;;;;;;2.75;2.55;;;5.60;99.90;;;;;;5053298;28;20189;-68
2022/04/03 16:55:17;;;;;;;2.90;2.70;;;5.90;99.90;;;;;;5053419;28;20200;-68
2022/04/03 16:57:43;;;;;;;2.85;2.67;;;6.20;99.90;;;;;;5053293;28;20169;-68
2022/04/03 17:00:10;;;;;;;3.65;2.67;;;6.50;99.90;;;;;;5053257;28;20391;-68
2022/04/03 17:02:36;;;;;;;2.60;2.40;;;6.80;99.90;;;;;;5053241;28;20260;-68
2022/04/03 17:05:04;;;;;;;3.80;2.50;;;7.00;99.90;;;;;;5053173;28;20169;-68
2022/04/03 17:07:30;;;;;;;2.25;2.15;;;6.80;99.90;;;;;;5052992;28;20172;-68
2022/04/03 17:09:59;;;;;;;2.40;2.30;;;6.70;99.90;;;;;;5053002;28;20165;-68
2022/04/03 17:12:25;;;;;;;3.65;3.08;;;6.80;99.90;;;;;;5052809;28;20213;-68
2022/04/03 17:14:50;;;;;;;3.00;2.75;;;7.10;99.90;;;;;;5053128;28;20165;-68
2022/04/03 17:17:16;;;;;;;3.08;2.83;;;7.20;99.90;;;;;;5053093;28;20165;-68
2022/04/03 17:19:43;;;;;;;3.03;2.50;;;7.30;99.90;;;;;;5053102;28;20521;-68
2022/04/03 17:22:12;;;;;;;2.38;2.28;;;7.20;99.90;;;;;;5052987;28;20172;-68
2022/04/03 17:24:39;;;;;;;3.00;2.80;;;6.90;99.90;;;;;;5052991;28;20185;-68
2022/04/03 17:27:05;;;;;;;4.40;2.78;;;6.40;99.90;;;;;;5052947;28;20201;-68
2022/04/03 17:29:32;;;;;;;2.80;2.70;;;6.10;99.90;;;;;;5052956;28;20573;-68
2022/04/03 17:31:58;;;;;;;2.90;2.78;;;5.60;99.90;;;;;;5052887;28;20215;-68
2022/04/03 17:34:23;;;;;;;3.30;3.10;;;5.30;99.90;;;;;;5055639;28;20208;-68
2022/04/03 17:36:49;;;;;;;3.55;3.35;;;5.10;99.90;;;;;;5055739;28;20180;-68
2022/04/03 17:39:15;;;;;;;3.40;3.10;;;5.00;99.90;;;;;;5056935;28;20169;-68
2022/04/03 17:41:40;;;;;;;6.15;3.17;;;4.90;99.90;;;;;;5056855;28;20243;-68
2022/04/03 17:44:07;;;;;;;3.33;3.13;;;4.90;99.90;;;;;;5056833;28;20571;-68
2022/04/03 17:46:33;;;;;;;4.50;4.07;;;4.80;99.90;;;;;;5056809;28;20177;-68
2022/04/03 17:48:59;;;;;;;3.83;3.40;;;4.70;99.90;;;;;;5056676;28;20526;-68
2022/04/03 17:51:27;;;;;;;3.80;3.50;;;4.60;99.90;;;;;;5056564;28;20573;-68
2022/04/03 17:53:53;;;;;;;3.65;3.38;;;4.50;99.90;;;;;;5056657;28;20214;-68
2022/04/03 17:56:19;;;;;;;4.18;3.97;;;4.40;99.90;;;;;;5056500;28;20260;-68
